Aérodrome :
LOGIN :

S'inscrire | Disclaimer

   EN    FR    IT 

 










Légende :    VFR   VFR Marginal   IFR   IFR Intensif   IFR Très Intensif
Visi : 
Plafond : 
>= 8 km
>= 3000ft
5 à 8 km
1000 à 3000 ft
1500m à 5 km
500 à 1000 ft
800 à 1500m
200 à 500 ft
< 800m
< 200 ft
Symboles :   Orages  Brouillard  Fortes neiges  Fortes précipitations  Vent > 20 kt
SIGMETs :   Divers  Orages  Givrage  Turbulence  Onde Orograph.  Cendres Volcan.






- Altitude de l'aérodrome : 1234 ft
- Code IATA : LUX


ELLX - Luxembourg Findel

DERNIER METAR :
  • 051950Z 04010KT 9999 FEW044 01/M04 Q1029 NOSIG

METARs EXPIRÉS :
  • 051920Z 05010KT 9999 BKN043 02/M04 Q1028 NOSIG
  • 051850Z 06009KT 9999 BKN041 03/M04 Q1028 NOSIG
  • 051820Z 06008KT 9999 BKN043 03/M04 Q1028 NOSIG
  • 051750Z 04009KT 9999 BKN041 03/M04 Q1027 NOSIG
  • 051720Z 03009KT 9999 BKN042 03/M04 Q1027 NOSIG

TAF TAF ELLX
Valide du 05 à 18h jusqu'au 07 à 00h UTC


051700Z 0518/0624 05010KT 9999 BKN040
BECMG 0600/0603 SCT020
PROB40
TEMPO 0600/0603 4500 BR
BECMG 0606/0610 CAVOK
ATIS : +352 4798 27300
Météo : +352 4798 27010 / 27050



MET'MAP, la Météo Aéronautique d'un coup d'oeil ! - Copyright ORBIFLY Décembre 2007 - Disclaimer

ORBIFLY MET'MAP TEAM :

Programmation & Développement : Alexandra Zaïnal
Sur une idée originale de : Baudouin d'Aumeries
Assistance à la programmation : Marc-Olivier Méhu
Soutien technique & logistique : Manuel Goepfert

Contact : metmap@orbifly.com




SOURCES & CREDITS :

   NOAA